sensor_id;sensor_type;location;lat;lon;timestamp;P1;durP1;ratioP1;P2;durP2;ratioP2
74535;SDS011;63013;51.104;-115.370;2023-01-28T00:00:06;0.70;;;0.70;;
74535;SDS011;63013;51.104;-115.370;2023-01-28T00:02:57;1.10;;;1.00;;
74535;SDS011;63013;51.104;-115.370;2023-01-28T00:05:36;1.00;;;0.90;;
74535;SDS011;63013;51.104;-115.370;2023-01-28T00:08:19;0.80;;;0.80;;
74535;SDS011;63013;51.104;-115.370;2023-01-28T00:10:55;1.10;;;1.00;;
74535;SDS011;63013;51.104;-115.370;2023-01-28T00:14:09;0.70;;;0.70;;
74535;SDS011;63013;51.104;-115.370;2023-01-28T00:16:40;1.00;;;0.90;;
74535;SDS011;63013;51.104;-115.370;2023-01-28T00:19:07;0.90;;;0.90;;
74535;SDS011;63013;51.104;-115.370;2023-01-28T00:21:53;1.00;;;0.90;;
74535;SDS011;63013;51.104;-115.370;2023-01-28T00:24:21;0.70;;;0.70;;
74535;SDS011;63013;51.104;-115.370;2023-01-28T00:26:54;0.60;;;0.60;;
74535;SDS011;63013;51.104;-115.370;2023-01-28T00:29:25;1.00;;;0.80;;
74535;SDS011;63013;51.104;-115.370;2023-01-28T00:32:00;1.00;;;0.80;;
74535;SDS011;63013;51.104;-115.370;2023-01-28T00:34:31;0.70;;;0.60;;
74535;SDS011;63013;51.104;-115.370;2023-01-28T00:37:02;0.60;;;0.60;;
74535;SDS011;63013;51.104;-115.370;2023-01-28T00:39:35;1.20;;;0.80;;
74535;SDS011;63013;51.104;-115.370;2023-01-28T00:42:05;1.00;;;0.90;;
74535;SDS011;63013;51.104;-115.370;2023-01-28T00:44:36;0.90;;;0.70;;
74535;SDS011;63013;51.104;-115.370;2023-01-28T00:47:04;0.70;;;0.70;;
74535;SDS011;63013;51.104;-115.370;2023-01-28T00:49:48;1.10;;;0.80;;
74535;SDS011;63013;51.104;-115.370;2023-01-28T00:52:24;1.40;;;0.90;;
74535;SDS011;63013;51.104;-115.370;2023-01-28T00:54:51;1.20;;;0.90;;
74535;SDS011;63013;51.104;-115.370;2023-01-28T00:57:18;2.20;;;1.00;;
74535;SDS011;63013;51.104;-115.370;2023-01-28T00:59:48;2.40;;;1.00;;
74535;SDS011;63013;51.104;-115.370;2023-01-28T01:02:19;1.70;;;1.10;;
74535;SDS011;63013;51.104;-115.370;2023-01-28T01:04:46;1.20;;;0.90;;
74535;SDS011;63013;51.104;-115.370;2023-01-28T01:07:28;1.70;;;0.90;;
74535;SDS011;63013;51.104;-115.370;2023-01-28T01:10:19;2.20;;;1.00;;
74535;SDS011;63013;51.104;-115.370;2023-01-28T01:12:50;1.40;;;0.90;;
74535;SDS011;63013;51.104;-115.370;2023-01-28T01:15:41;2.10;;;1.00;;
74535;SDS011;63013;51.104;-115.370;2023-01-28T01:18:09;1.50;;;1.10;;
74535;SDS011;63013;51.104;-115.370;2023-01-28T01:20:41;1.20;;;0.80;;
74535;SDS011;63013;51.104;-115.370;2023-01-28T01:23:11;1.10;;;0.90;;
74535;SDS011;63013;51.104;-115.370;2023-01-28T01:25:44;1.90;;;1.00;;
74535;SDS011;63013;51.104;-115.370;2023-01-28T01:28:14;1.40;;;0.80;;
74535;SDS011;63013;51.104;-115.370;2023-01-28T01:30:41;1.30;;;0.70;;
74535;SDS011;63013;51.104;-115.370;2023-01-28T01:33:09;1.10;;;1.00;;
74535;SDS011;63013;51.104;-115.370;2023-01-28T01:35:36;1.80;;;1.00;;
74535;SDS011;63013;51.104;-115.370;2023-01-28T01:38:04;2.40;;;1.00;;
74535;SDS011;63013;51.104;-115.370;2023-01-28T01:40:31;1.50;;;1.00;;
74535;SDS011;63013;51.104;-115.370;2023-01-28T01:43:12;1.30;;;1.00;;
74535;SDS011;63013;51.104;-115.370;2023-01-28T01:45:59;2.10;;;1.00;;
74535;SDS011;63013;51.104;-115.370;2023-01-28T01:48:32;1.10;;;0.80;;
74535;SDS011;63013;51.104;-115.370;2023-01-28T01:51:09;1.30;;;1.00;;
74535;SDS011;63013;51.104;-115.370;2023-01-28T01:53:46;1.20;;;0.90;;
74535;SDS011;63013;51.104;-115.370;2023-01-28T01:56:21;2.00;;;0.90;;
74535;SDS011;63013;51.104;-115.370;2023-01-28T01:58:54;1.20;;;0.80;;
74535;SDS011;63013;51.104;-115.370;2023-01-28T02:01:25;1.20;;;0.90;;
74535;SDS011;63013;51.104;-115.370;2023-01-28T02:04:17;1.10;;;0.90;;
74535;SDS011;63013;51.104;-115.370;2023-01-28T02:06:56;1.10;;;1.00;;
74535;SDS011;63013;51.104;-115.370;2023-01-28T02:09:30;3.20;;;0.90;;
74535;SDS011;63013;51.104;-115.370;2023-01-28T02:12:14;1.70;;;0.80;;
74535;SDS011;63013;51.104;-115.370;2023-01-28T02:14:52;1.00;;;0.80;;
74535;SDS011;63013;51.104;-115.370;2023-01-28T02:17:23;2.10;;;0.90;;
74535;SDS011;63013;51.104;-115.370;2023-01-28T02:28:21;1.60;;;0.90;;
74535;SDS011;63013;51.104;-115.370;2023-01-28T02:31:04;1.10;;;0.80;;
74535;SDS011;63013;51.104;-115.370;2023-01-28T02:34:33;1.60;;;1.00;;
74535;SDS011;63013;51.104;-115.370;2023-01-28T02:36:58;1.10;;;0.70;;
74535;SDS011;63013;51.104;-115.370;2023-01-28T02:39:44;1.80;;;0.90;;
74535;SDS011;63013;51.104;-115.370;2023-01-28T02:44:50;0.90;;;0.80;;
74535;SDS011;63013;51.104;-115.370;2023-01-28T02:47:18;1.30;;;0.70;;
74535;SDS011;63013;51.104;-115.370;2023-01-28T02:50:06;3.20;;;0.80;;
74535;SDS011;63013;51.104;-115.370;2023-01-28T02:56:19;2.10;;;0.80;;
74535;SDS011;63013;51.104;-115.370;2023-01-28T02:59:33;1.30;;;0.80;;
74535;SDS011;63013;51.104;-115.370;2023-01-28T03:07:52;1.50;;;0.70;;
74535;SDS011;63013;51.104;-115.370;2023-01-28T03:10:22;1.60;;;0.80;;
74535;SDS011;63013;51.104;-115.370;2023-01-28T03:12:56;0.90;;;0.80;;
74535;SDS011;63013;51.104;-115.370;2023-01-28T03:15:44;0.80;;;0.60;;
74535;SDS011;63013;51.104;-115.370;2023-01-28T03:18:39;0.80;;;0.60;;
74535;SDS011;63013;51.104;-115.370;2023-01-28T03:21:40;0.70;;;0.70;;
74535;SDS011;63013;51.104;-115.370;2023-01-28T03:24:32;1.80;;;0.80;;
74535;SDS011;63013;51.104;-115.370;2023-01-28T03:30:44;1.30;;;0.70;;
74535;SDS011;63013;51.104;-115.370;2023-01-28T03:33:42;1.80;;;0.80;;
74535;SDS011;63013;51.104;-115.370;2023-01-28T03:36:29;2.80;;;0.70;;
74535;SDS011;63013;51.104;-115.370;2023-01-28T03:39:16;1.90;;;1.00;;
74535;SDS011;63013;51.104;-115.370;2023-01-28T03:42:14;0.90;;;0.70;;
74535;SDS011;63013;51.104;-115.370;2023-01-28T03:44:48;0.70;;;0.60;;
74535;SDS011;63013;51.104;-115.370;2023-01-28T03:47:19;0.70;;;0.60;;
74535;SDS011;63013;51.104;-115.370;2023-01-28T03:49:52;1.10;;;0.90;;
74535;SDS011;63013;51.104;-115.370;2023-01-28T03:52:25;2.30;;;0.90;;
74535;SDS011;63013;51.104;-115.370;2023-01-28T03:54:55;1.40;;;0.80;;
74535;SDS011;63013;51.104;-115.370;2023-01-28T03:57:26;0.90;;;0.80;;
74535;SDS011;63013;51.104;-115.370;2023-01-28T03:59:56;1.20;;;0.70;;
74535;SDS011;63013;51.104;-115.370;2023-01-28T04:02:26;1.60;;;0.70;;
74535;SDS011;63013;51.104;-115.370;2023-01-28T04:04:53;1.10;;;0.70;;
74535;SDS011;63013;51.104;-115.370;2023-01-28T04:07:20;0.80;;;0.60;;
74535;SDS011;63013;51.104;-115.370;2023-01-28T04:09:47;1.30;;;0.70;;
74535;SDS011;63013;51.104;-115.370;2023-01-28T04:12:15;0.90;;;0.60;;
74535;SDS011;63013;51.104;-115.370;2023-01-28T04:14:43;1.20;;;1.00;;
74535;SDS011;63013;51.104;-115.370;2023-01-28T04:17:10;1.40;;;0.70;;
74535;SDS011;63013;51.104;-115.370;2023-01-28T04:19:38;1.70;;;1.10;;
74535;SDS011;63013;51.104;-115.370;2023-01-28T04:22:08;0.80;;;0.60;;
74535;SDS011;63013;51.104;-115.370;2023-01-28T04:24:37;0.90;;;0.60;;
74535;SDS011;63013;51.104;-115.370;2023-01-28T04:27:04;1.10;;;0.80;;
74535;SDS011;63013;51.104;-115.370;2023-01-28T04:29:31;0.80;;;0.70;;
74535;SDS011;63013;51.104;-115.370;2023-01-28T04:32:02;0.80;;;0.70;;
74535;SDS011;63013;51.104;-115.370;2023-01-28T04:34:29;1.20;;;0.60;;
74535;SDS011;63013;51.104;-115.370;2023-01-28T04:36:56;0.80;;;0.50;;
74535;SDS011;63013;51.104;-115.370;2023-01-28T04:39:23;0.90;;;0.60;;
74535;SDS011;63013;51.104;-115.370;2023-01-28T04:41:50;2.20;;;0.70;;
74535;SDS011;63013;51.104;-115.370;2023-01-28T04:44:17;1.00;;;0.80;;
74535;SDS011;63013;51.104;-115.370;2023-01-28T04:46:45;1.00;;;0.60;;
74535;SDS011;63013;51.104;-115.370;2023-01-28T04:49:15;0.80;;;0.60;;
74535;SDS011;63013;51.104;-115.370;2023-01-28T04:51:42;2.30;;;0.80;;
74535;SDS011;63013;51.104;-115.370;2023-01-28T04:54:09;1.10;;;0.90;;
74535;SDS011;63013;51.104;-115.370;2023-01-28T04:56:36;1.00;;;0.70;;
74535;SDS011;63013;51.104;-115.370;2023-01-28T04:59:03;1.30;;;0.60;;
74535;SDS011;63013;51.104;-115.370;2023-01-28T05:01:30;1.20;;;0.60;;
74535;SDS011;63013;51.104;-115.370;2023-01-28T05:03:57;1.00;;;0.60;;
74535;SDS011;63013;51.104;-115.370;2023-01-28T05:06:31;1.00;;;0.70;;
74535;SDS011;63013;51.104;-115.370;2023-01-28T05:08:58;1.10;;;0.70;;
74535;SDS011;63013;51.104;-115.370;2023-01-28T05:11:28;0.70;;;0.60;;
74535;SDS011;63013;51.104;-115.370;2023-01-28T05:13:55;0.70;;;0.60;;
74535;SDS011;63013;51.104;-115.370;2023-01-28T05:16:22;0.90;;;0.60;;
74535;SDS011;63013;51.104;-115.370;2023-01-28T05:18:49;0.70;;;0.60;;
74535;SDS011;63013;51.104;-115.370;2023-01-28T05:21:17;0.90;;;0.60;;
74535;SDS011;63013;51.104;-115.370;2023-01-28T05:23:44;1.70;;;0.90;;
74535;SDS011;63013;51.104;-115.370;2023-01-28T05:26:11;1.00;;;0.70;;
74535;SDS011;63013;51.104;-115.370;2023-01-28T05:28:39;0.80;;;0.60;;
74535;SDS011;63013;51.104;-115.370;2023-01-28T05:31:09;0.70;;;0.60;;
74535;SDS011;63013;51.104;-115.370;2023-01-28T05:33:40;1.00;;;0.70;;
74535;SDS011;63013;51.104;-115.370;2023-01-28T05:36:08;1.00;;;0.80;;
74535;SDS011;63013;51.104;-115.370;2023-01-28T05:38:38;0.90;;;0.80;;
74535;SDS011;63013;51.104;-115.370;2023-01-28T05:41:27;0.80;;;0.60;;
74535;SDS011;63013;51.104;-115.370;2023-01-28T05:43:57;0.90;;;0.80;;
74535;SDS011;63013;51.104;-115.370;2023-01-28T05:46:27;0.60;;;0.50;;
74535;SDS011;63013;51.104;-115.370;2023-01-28T05:49:00;0.80;;;0.60;;
74535;SDS011;63013;51.104;-115.370;2023-01-28T05:51:27;1.70;;;0.80;;
74535;SDS011;63013;51.104;-115.370;2023-01-28T05:53:58;0.90;;;0.90;;
74535;SDS011;63013;51.104;-115.370;2023-01-28T05:56:26;1.20;;;0.70;;
74535;SDS011;63013;51.104;-115.370;2023-01-28T05:58:53;0.60;;;0.50;;
74535;SDS011;63013;51.104;-115.370;2023-01-28T06:01:20;1.00;;;0.70;;
74535;SDS011;63013;51.104;-115.370;2023-01-28T06:03:47;1.50;;;0.90;;
74535;SDS011;63013;51.104;-115.370;2023-01-28T06:06:15;1.00;;;0.80;;
74535;SDS011;63013;51.104;-115.370;2023-01-28T06:08:45;0.90;;;0.80;;
74535;SDS011;63013;51.104;-115.370;2023-01-28T06:11:13;1.10;;;0.50;;
74535;SDS011;63013;51.104;-115.370;2023-01-28T06:13:56;0.90;;;0.60;;
74535;SDS011;63013;51.104;-115.370;2023-01-28T06:16:23;0.90;;;0.60;;
74535;SDS011;63013;51.104;-115.370;2023-01-28T06:18:51;0.60;;;0.60;;
74535;SDS011;63013;51.104;-115.370;2023-01-28T06:21:22;1.20;;;0.70;;
74535;SDS011;63013;51.104;-115.370;2023-01-28T06:23:52;0.80;;;0.60;;
74535;SDS011;63013;51.104;-115.370;2023-01-28T06:26:23;0.70;;;0.60;;
74535;SDS011;63013;51.104;-115.370;2023-01-28T06:28:53;1.30;;;0.60;;
74535;SDS011;63013;51.104;-115.370;2023-01-28T06:31:30;1.10;;;0.70;;
74535;SDS011;63013;51.104;-115.370;2023-01-28T06:33:57;0.90;;;0.60;;
74535;SDS011;63013;51.104;-115.370;2023-01-28T06:36:24;1.20;;;0.80;;
74535;SDS011;63013;51.104;-115.370;2023-01-28T06:38:58;0.90;;;0.60;;
74535;SDS011;63013;51.104;-115.370;2023-01-28T06:41:46;1.20;;;0.80;;
74535;SDS011;63013;51.104;-115.370;2023-01-28T06:44:14;1.10;;;0.60;;
74535;SDS011;63013;51.104;-115.370;2023-01-28T06:46:42;1.00;;;0.60;;
74535;SDS011;63013;51.104;-115.370;2023-01-28T06:49:22;0.50;;;0.50;;
74535;SDS011;63013;51.104;-115.370;2023-01-28T06:51:50;0.80;;;0.60;;
74535;SDS011;63013;51.104;-115.370;2023-01-28T06:54:17;1.80;;;0.60;;
74535;SDS011;63013;51.104;-115.370;2023-01-28T06:56:54;0.60;;;0.40;;
74535;SDS011;63013;51.104;-115.370;2023-01-28T06:59:21;0.80;;;0.50;;
74535;SDS011;63013;51.104;-115.370;2023-01-28T07:01:53;1.10;;;0.60;;
74535;SDS011;63013;51.104;-115.370;2023-01-28T07:04:20;0.80;;;0.60;;
74535;SDS011;63013;51.104;-115.370;2023-01-28T07:06:48;1.20;;;0.80;;
74535;SDS011;63013;51.104;-115.370;2023-01-28T07:09:15;0.50;;;0.50;;
74535;SDS011;63013;51.104;-115.370;2023-01-28T07:11:52;1.40;;;0.70;;
74535;SDS011;63013;51.104;-115.370;2023-01-28T07:14:22;0.90;;;0.70;;
74535;SDS011;63013;51.104;-115.370;2023-01-28T07:16:49;0.80;;;0.60;;
74535;SDS011;63013;51.104;-115.370;2023-01-28T07:19:22;0.90;;;0.70;;
74535;SDS011;63013;51.104;-115.370;2023-01-28T07:21:49;0.70;;;0.60;;
74535;SDS011;63013;51.104;-115.370;2023-01-28T07:24:17;1.00;;;0.70;;
74535;SDS011;63013;51.104;-115.370;2023-01-28T07:26:46;1.00;;;0.70;;
74535;SDS011;63013;51.104;-115.370;2023-01-28T07:29:13;0.90;;;0.60;;
74535;SDS011;63013;51.104;-115.370;2023-01-28T07:34:40;0.90;;;0.60;;
74535;SDS011;63013;51.104;-115.370;2023-01-28T07:37:08;0.90;;;0.70;;
74535;SDS011;63013;51.104;-115.370;2023-01-28T07:39:36;0.80;;;0.60;;
74535;SDS011;63013;51.104;-115.370;2023-01-28T07:42:03;0.80;;;0.50;;
74535;SDS011;63013;51.104;-115.370;2023-01-28T07:44:31;1.30;;;0.50;;
74535;SDS011;63013;51.104;-115.370;2023-01-28T07:46:59;1.00;;;0.50;;
74535;SDS011;63013;51.104;-115.370;2023-01-28T07:49:27;0.80;;;0.70;;
74535;SDS011;63013;51.104;-115.370;2023-01-28T07:51:54;1.00;;;0.60;;
74535;SDS011;63013;51.104;-115.370;2023-01-28T07:54:21;0.50;;;0.50;;
74535;SDS011;63013;51.104;-115.370;2023-01-28T07:56:48;0.70;;;0.50;;
74535;SDS011;63013;51.104;-115.370;2023-01-28T07:59:15;0.70;;;0.40;;
74535;SDS011;63013;51.104;-115.370;2023-01-28T08:01:43;1.20;;;0.60;;
74535;SDS011;63013;51.104;-115.370;2023-01-28T08:04:10;0.60;;;0.50;;
74535;SDS011;63013;51.104;-115.370;2023-01-28T08:06:37;0.90;;;0.70;;
74535;SDS011;63013;51.104;-115.370;2023-01-28T08:09:04;0.50;;;0.50;;
74535;SDS011;63013;51.104;-115.370;2023-01-28T08:11:39;0.60;;;0.60;;
74535;SDS011;63013;51.104;-115.370;2023-01-28T08:14:08;0.70;;;0.70;;
74535;SDS011;63013;51.104;-115.370;2023-01-28T08:16:36;0.70;;;0.50;;
74535;SDS011;63013;51.104;-115.370;2023-01-28T08:19:03;0.50;;;0.50;;
74535;SDS011;63013;51.104;-115.370;2023-01-28T08:21:30;1.10;;;0.50;;
74535;SDS011;63013;51.104;-115.370;2023-01-28T08:23:57;0.70;;;0.50;;
74535;SDS011;63013;51.104;-115.370;2023-01-28T08:26:27;0.90;;;0.50;;
74535;SDS011;63013;51.104;-115.370;2023-01-28T08:28:54;1.00;;;0.40;;
74535;SDS011;63013;51.104;-115.370;2023-01-28T08:31:22;0.70;;;0.40;;
74535;SDS011;63013;51.104;-115.370;2023-01-28T08:33:49;0.70;;;0.60;;
74535;SDS011;63013;51.104;-115.370;2023-01-28T08:36:16;0.70;;;0.60;;
74535;SDS011;63013;51.104;-115.370;2023-01-28T08:38:43;0.50;;;0.50;;
74535;SDS011;63013;51.104;-115.370;2023-01-28T08:41:11;0.80;;;0.50;;
74535;SDS011;63013;51.104;-115.370;2023-01-28T08:43:38;0.70;;;0.60;;
74535;SDS011;63013;51.104;-115.370;2023-01-28T08:46:05;0.90;;;0.50;;
74535;SDS011;63013;51.104;-115.370;2023-01-28T08:48:33;0.80;;;0.50;;
74535;SDS011;63013;51.104;-115.370;2023-01-28T08:51:00;0.60;;;0.40;;
74535;SDS011;63013;51.104;-115.370;2023-01-28T08:53:27;0.50;;;0.50;;
74535;SDS011;63013;51.104;-115.370;2023-01-28T08:55:54;0.40;;;0.40;;
74535;SDS011;63013;51.104;-115.370;2023-01-28T08:58:22;1.20;;;0.50;;
74535;SDS011;63013;51.104;-115.370;2023-01-28T09:00:49;0.60;;;0.60;;
74535;SDS011;63013;51.104;-115.370;2023-01-28T09:03:17;1.20;;;0.50;;
74535;SDS011;63013;51.104;-115.370;2023-01-28T09:05:44;0.60;;;0.60;;
74535;SDS011;63013;51.104;-115.370;2023-01-28T09:08:13;0.80;;;0.60;;
74535;SDS011;63013;51.104;-115.370;2023-01-28T09:10:40;0.60;;;0.50;;
74535;SDS011;63013;51.104;-115.370;2023-01-28T09:13:13;0.70;;;0.50;;
74535;SDS011;63013;51.104;-115.370;2023-01-28T09:15:41;0.50;;;0.40;;
74535;SDS011;63013;51.104;-115.370;2023-01-28T09:18:09;1.00;;;0.60;;
74535;SDS011;63013;51.104;-115.370;2023-01-28T09:20:37;0.60;;;0.40;;
74535;SDS011;63013;51.104;-115.370;2023-01-28T09:23:04;0.70;;;0.50;;
74535;SDS011;63013;51.104;-115.370;2023-01-28T09:25:32;0.90;;;0.60;;
74535;SDS011;63013;51.104;-115.370;2023-01-28T09:28:01;0.60;;;0.40;;
74535;SDS011;63013;51.104;-115.370;2023-01-28T09:30:28;0.70;;;0.60;;
74535;SDS011;63013;51.104;-115.370;2023-01-28T09:32:56;0.70;;;0.50;;
74535;SDS011;63013;51.104;-115.370;2023-01-28T09:35:23;0.60;;;0.40;;
74535;SDS011;63013;51.104;-115.370;2023-01-28T09:37:54;0.50;;;0.40;;
74535;SDS011;63013;51.104;-115.370;2023-01-28T09:40:39;0.50;;;0.40;;
74535;SDS011;63013;51.104;-115.370;2023-01-28T09:46:35;0.60;;;0.50;;
74535;SDS011;63013;51.104;-115.370;2023-01-28T09:52:16;0.60;;;0.40;;
74535;SDS011;63013;51.104;-115.370;2023-01-28T09:54:54;0.60;;;0.40;;
74535;SDS011;63013;51.104;-115.370;2023-01-28T09:57:40;0.70;;;0.50;;
74535;SDS011;63013;51.104;-115.370;2023-01-28T10:00:15;0.40;;;0.40;;
74535;SDS011;63013;51.104;-115.370;2023-01-28T10:08:46;0.70;;;0.40;;
74535;SDS011;63013;51.104;-115.370;2023-01-28T10:17:26;0.50;;;0.40;;
74535;SDS011;63013;51.104;-115.370;2023-01-28T10:20:12;0.60;;;0.40;;
74535;SDS011;63013;51.104;-115.370;2023-01-28T10:22:54;0.60;;;0.40;;
74535;SDS011;63013;51.104;-115.370;2023-01-28T10:25:41;0.60;;;0.50;;
74535;SDS011;63013;51.104;-115.370;2023-01-28T10:28:23;1.40;;;0.50;;
74535;SDS011;63013;51.104;-115.370;2023-01-28T10:30:53;0.60;;;0.40;;
74535;SDS011;63013;51.104;-115.370;2023-01-28T10:35:55;0.70;;;0.40;;
74535;SDS011;63013;51.104;-115.370;2023-01-28T10:38:24;0.60;;;0.60;;
74535;SDS011;63013;51.104;-115.370;2023-01-28T10:40:57;0.50;;;0.50;;
74535;SDS011;63013;51.104;-115.370;2023-01-28T10:43:33;0.40;;;0.40;;
74535;SDS011;63013;51.104;-115.370;2023-01-28T10:46:14;0.40;;;0.40;;
74535;SDS011;63013;51.104;-115.370;2023-01-28T10:51:43;0.50;;;0.40;;
74535;SDS011;63013;51.104;-115.370;2023-01-28T10:54:36;0.60;;;0.40;;
74535;SDS011;63013;51.104;-115.370;2023-01-28T10:57:09;0.60;;;0.50;;
74535;SDS011;63013;51.104;-115.370;2023-01-28T10:59:51;0.40;;;0.40;;
74535;SDS011;63013;51.104;-115.370;2023-01-28T11:02:32;0.40;;;0.30;;
74535;SDS011;63013;51.104;-115.370;2023-01-28T11:07:43;0.70;;;0.40;;
74535;SDS011;63013;51.104;-115.370;2023-01-28T11:10:35;0.90;;;0.40;;
74535;SDS011;63013;51.104;-115.370;2023-01-28T11:13:14;0.40;;;0.30;;
74535;SDS011;63013;51.104;-115.370;2023-01-28T11:16:02;0.30;;;0.30;;
74535;SDS011;63013;51.104;-115.370;2023-01-28T11:18:52;0.60;;;0.40;;
74535;SDS011;63013;51.104;-115.370;2023-01-28T11:21:39;0.50;;;0.40;;
74535;SDS011;63013;51.104;-115.370;2023-01-28T11:24:19;0.50;;;0.30;;
74535;SDS011;63013;51.104;-115.370;2023-01-28T11:26:58;0.60;;;0.40;;
74535;SDS011;63013;51.104;-115.370;2023-01-28T11:29:54;1.20;;;0.40;;
74535;SDS011;63013;51.104;-115.370;2023-01-28T11:32:27;0.40;;;0.30;;
74535;SDS011;63013;51.104;-115.370;2023-01-28T11:34:59;0.50;;;0.40;;
74535;SDS011;63013;51.104;-115.370;2023-01-28T11:37:28;0.40;;;0.30;;
74535;SDS011;63013;51.104;-115.370;2023-01-28T12:01:51;0.60;;;0.30;;
74535;SDS011;63013;51.104;-115.370;2023-01-28T12:11:16;0.50;;;0.40;;
74535;SDS011;63013;51.104;-115.370;2023-01-28T12:14:51;0.60;;;0.30;;
74535;SDS011;63013;51.104;-115.370;2023-01-28T12:17:53;0.40;;;0.30;;
74535;SDS011;63013;51.104;-115.370;2023-01-28T12:21:16;0.40;;;0.40;;
74535;SDS011;63013;51.104;-115.370;2023-01-28T12:33:43;0.50;;;0.30;;
74535;SDS011;63013;51.104;-115.370;2023-01-28T12:36:38;0.50;;;0.40;;
74535;SDS011;63013;51.104;-115.370;2023-01-28T12:42:39;0.40;;;0.30;;
74535;SDS011;63013;51.104;-115.370;2023-01-28T12:45:25;0.40;;;0.30;;
74535;SDS011;63013;51.104;-115.370;2023-01-28T12:48:07;0.30;;;0.30;;
74535;SDS011;63013;51.104;-115.370;2023-01-28T12:50:50;0.30;;;0.30;;
74535;SDS011;63013;51.104;-115.370;2023-01-28T12:53:27;0.50;;;0.40;;
74535;SDS011;63013;51.104;-115.370;2023-01-28T12:59:03;0.30;;;0.30;;
74535;SDS011;63013;51.104;-115.370;2023-01-28T13:04:53;0.60;;;0.40;;
74535;SDS011;63013;51.104;-115.370;2023-01-28T13:10:42;0.40;;;0.30;;
74535;SDS011;63013;51.104;-115.370;2023-01-28T13:13:17;0.30;;;0.20;;
74535;SDS011;63013;51.104;-115.370;2023-01-28T13:15:53;0.60;;;0.30;;
74535;SDS011;63013;51.104;-115.370;2023-01-28T13:18:34;0.50;;;0.40;;
74535;SDS011;63013;51.104;-115.370;2023-01-28T13:21:28;0.40;;;0.30;;
74535;SDS011;63013;51.104;-115.370;2023-01-28T13:24:05;0.50;;;0.30;;
74535;SDS011;63013;51.104;-115.370;2023-01-28T13:26:50;0.40;;;0.20;;
74535;SDS011;63013;51.104;-115.370;2023-01-28T13:31:54;0.30;;;0.30;;
74535;SDS011;63013;51.104;-115.370;2023-01-28T13:34:42;0.30;;;0.30;;
74535;SDS011;63013;51.104;-115.370;2023-01-28T13:39:51;0.30;;;0.30;;
74535;SDS011;63013;51.104;-115.370;2023-01-28T13:42:28;0.40;;;0.20;;
74535;SDS011;63013;51.104;-115.370;2023-01-28T13:47:45;0.40;;;0.30;;
74535;SDS011;63013;51.104;-115.370;2023-01-28T13:50:42;0.30;;;0.30;;
74535;SDS011;63013;51.104;-115.370;2023-01-28T13:54:10;0.30;;;0.30;;
74535;SDS011;63013;51.104;-115.370;2023-01-28T13:56:26;0.20;;;0.20;;
74535;SDS011;63013;51.104;-115.370;2023-01-28T13:59:16;0.30;;;0.30;;
74535;SDS011;63013;51.104;-115.370;2023-01-28T14:08:42;0.20;;;0.20;;
74535;SDS011;63013;51.104;-115.370;2023-01-28T14:17:00;0.20;;;0.20;;
74535;SDS011;63013;51.104;-115.370;2023-01-28T14:19:50;0.20;;;0.20;;
74535;SDS011;63013;51.104;-115.370;2023-01-28T14:22:20;0.20;;;0.20;;
74535;SDS011;63013;51.104;-115.370;2023-01-28T14:24:48;0.40;;;0.20;;
74535;SDS011;63013;51.104;-115.370;2023-01-28T14:30:07;0.20;;;0.20;;
74535;SDS011;63013;51.104;-115.370;2023-01-28T14:32:48;0.30;;;0.30;;
74535;SDS011;63013;51.104;-115.370;2023-01-28T14:35:38;0.30;;;0.20;;
74535;SDS011;63013;51.104;-115.370;2023-01-28T14:38:19;0.20;;;0.20;;
74535;SDS011;63013;51.104;-115.370;2023-01-28T14:40:50;0.20;;;0.20;;
74535;SDS011;63013;51.104;-115.370;2023-01-28T14:43:21;0.30;;;0.30;;
74535;SDS011;63013;51.104;-115.370;2023-01-28T14:54:37;0.70;;;0.40;;
74535;SDS011;63013;51.104;-115.370;2023-01-28T14:57:35;0.20;;;0.20;;
74535;SDS011;63013;51.104;-115.370;2023-01-28T15:00:25;0.20;;;0.20;;
74535;SDS011;63013;51.104;-115.370;2023-01-28T15:02:54;0.20;;;0.20;;
74535;SDS011;63013;51.104;-115.370;2023-01-28T15:05:27;0.20;;;0.20;;
74535;SDS011;63013;51.104;-115.370;2023-01-28T15:07:56;0.20;;;0.20;;
74535;SDS011;63013;51.104;-115.370;2023-01-28T15:10:29;0.20;;;0.20;;
74535;SDS011;63013;51.104;-115.370;2023-01-28T15:13:17;0.20;;;0.20;;
74535;SDS011;63013;51.104;-115.370;2023-01-28T15:15:58;0.20;;;0.20;;
74535;SDS011;63013;51.104;-115.370;2023-01-28T15:18:34;0.30;;;0.20;;
74535;SDS011;63013;51.104;-115.370;2023-01-28T15:21:06;0.40;;;0.40;;
74535;SDS011;63013;51.104;-115.370;2023-01-28T15:23:36;0.20;;;0.20;;
74535;SDS011;63013;51.104;-115.370;2023-01-28T15:26:06;0.30;;;0.30;;
74535;SDS011;63013;51.104;-115.370;2023-01-28T15:28:42;0.20;;;0.20;;
74535;SDS011;63013;51.104;-115.370;2023-01-28T15:34:03;0.50;;;0.20;;
74535;SDS011;63013;51.104;-115.370;2023-01-28T15:36:58;0.20;;;0.20;;
74535;SDS011;63013;51.104;-115.370;2023-01-28T15:39:28;0.20;;;0.20;;
74535;SDS011;63013;51.104;-115.370;2023-01-28T15:41:59;0.20;;;0.20;;
74535;SDS011;63013;51.104;-115.370;2023-01-28T15:44:38;0.20;;;0.20;;
74535;SDS011;63013;51.104;-115.370;2023-01-28T15:47:35;0.30;;;0.20;;
74535;SDS011;63013;51.104;-115.370;2023-01-28T15:50:18;0.20;;;0.20;;
74535;SDS011;63013;51.104;-115.370;2023-01-28T15:52:48;0.30;;;0.20;;
74535;SDS011;63013;51.104;-115.370;2023-01-28T15:55:50;0.20;;;0.20;;
74535;SDS011;63013;51.104;-115.370;2023-01-28T15:58:32;0.20;;;0.20;;
74535;SDS011;63013;51.104;-115.370;2023-01-28T16:01:22;0.20;;;0.20;;
74535;SDS011;63013;51.104;-115.370;2023-01-28T16:04:06;0.30;;;0.30;;
74535;SDS011;63013;51.104;-115.370;2023-01-28T16:06:50;0.20;;;0.20;;
74535;SDS011;63013;51.104;-115.370;2023-01-28T16:09:31;0.20;;;0.20;;
74535;SDS011;63013;51.104;-115.370;2023-01-28T16:12:13;0.20;;;0.20;;
74535;SDS011;63013;51.104;-115.370;2023-01-28T16:14:50;0.30;;;0.30;;
74535;SDS011;63013;51.104;-115.370;2023-01-28T16:17:44;0.20;;;0.20;;
74535;SDS011;63013;51.104;-115.370;2023-01-28T16:20:26;0.20;;;0.20;;
74535;SDS011;63013;51.104;-115.370;2023-01-28T16:23:01;0.20;;;0.20;;
74535;SDS011;63013;51.104;-115.370;2023-01-28T16:25:58;0.20;;;0.20;;
74535;SDS011;63013;51.104;-115.370;2023-01-28T16:28:30;0.30;;;0.30;;
74535;SDS011;63013;51.104;-115.370;2023-01-28T16:30:59;0.20;;;0.20;;
74535;SDS011;63013;51.104;-115.370;2023-01-28T16:36:04;0.30;;;0.30;;
74535;SDS011;63013;51.104;-115.370;2023-01-28T16:38:34;0.20;;;0.20;;
74535;SDS011;63013;51.104;-115.370;2023-01-28T16:41:02;0.30;;;0.30;;
74535;SDS011;63013;51.104;-115.370;2023-01-28T16:43:30;0.30;;;0.30;;
74535;SDS011;63013;51.104;-115.370;2023-01-28T16:46:00;0.20;;;0.20;;
74535;SDS011;63013;51.104;-115.370;2023-01-28T16:48:28;0.20;;;0.20;;
74535;SDS011;63013;51.104;-115.370;2023-01-28T16:50:55;0.20;;;0.20;;
74535;SDS011;63013;51.104;-115.370;2023-01-28T16:53:28;0.20;;;0.20;;
74535;SDS011;63013;51.104;-115.370;2023-01-28T16:55:58;0.30;;;0.30;;
74535;SDS011;63013;51.104;-115.370;2023-01-28T16:58:27;0.20;;;0.20;;
74535;SDS011;63013;51.104;-115.370;2023-01-28T17:00:57;0.20;;;0.20;;
74535;SDS011;63013;51.104;-115.370;2023-01-28T17:03:25;0.20;;;0.20;;
74535;SDS011;63013;51.104;-115.370;2023-01-28T17:05:53;0.80;;;0.20;;
74535;SDS011;63013;51.104;-115.370;2023-01-28T17:08:20;0.80;;;0.20;;
74535;SDS011;63013;51.104;-115.370;2023-01-28T17:10:54;0.20;;;0.20;;
74535;SDS011;63013;51.104;-115.370;2023-01-28T17:13:22;0.40;;;0.40;;